Time;durP1;ratioP1;P1;durP2;ratioP2;P2;SDS_P1;SDS_P2;PMS_P1;PMS_P2;Temp;Humidity;BMP_temperature;BMP_pressure;BME280_temperature;BME280_humidity;BME280_pressure;Samples;Min_cycle;Max_cycle;Signal;HPM_P1;HPM_P2
2022/12/13 00:00:26;;;;;;;40.83;24.27;;;12.60;88.10;;;;;;4594280;19;20010;-29
2022/12/13 00:02:17;;;;;;;26.30;15.70;;;12.60;88.30;;;;;;4595147;19;20014;-31
2022/12/13 00:03:51;;;;;;;24.67;16.17;;;12.60;88.40;;;;;;4595705;19;20448;-33
2022/12/13 00:05:22;;;;;;;16.47;11.57;;;12.60;88.50;;;;;;4595056;19;20014;-32
2022/12/13 00:06:54;;;;;;;20.20;12.45;;;12.60;88.50;;;;;;4595364;19;20062;-31
2022/12/13 00:08:26;;;;;;;22.97;14.20;;;12.60;88.40;;;;;;4594259;19;20015;-31
2022/12/13 00:09:57;;;;;;;28.75;17.63;;;12.60;88.40;;;;;;4595401;19;20488;-29
2022/12/13 00:11:29;;;;;;;26.38;15.38;;;12.60;88.30;;;;;;4595201;19;20086;-31
2022/12/13 00:13:00;;;;;;;29.05;17.83;;;12.60;88.40;;;;;;4595641;19;20070;-31
2022/12/13 00:14:31;;;;;;;31.95;17.73;;;12.60;88.60;;;;;;4595573;19;20006;-31
2022/12/13 00:16:04;;;;;;;;;;;12.60;88.60;;;;;;4595220;19;20018;-31
2022/12/13 00:17:35;;;;;;;;;;;12.50;88.60;;;;;;4595697;19;19929;-32
2022/12/13 00:19:07;;;;;;;24.70;13.80;;;12.50;88.70;;;;;;4594937;19;19999;-30
2022/12/13 00:20:39;;;;;;;25.40;16.02;;;12.60;88.80;;;;;;4594182;19;20485;-28
2022/12/13 00:22:11;;;;;;;21.67;12.77;;;12.60;88.70;;;;;;4594556;19;20543;-30
2022/12/13 00:23:43;;;;;;;27.90;15.95;;;12.60;88.70;;;;;;4595355;19;20018;-31
2022/12/13 00:25:14;;;;;;;20.30;12.63;;;12.60;88.70;;;;;;4593888;19;20022;-30
2022/12/13 00:26:45;;;;;;;21.42;11.85;;;12.60;88.80;;;;;;4594192;19;20476;-30
2022/12/13 00:28:18;;;;;;;17.77;11.33;;;12.50;88.80;;;;;;4594533;19;20019;-29
2022/12/13 00:29:49;;;;;;;21.13;11.85;;;12.50;88.90;;;;;;4594892;19;20013;-32
2022/12/13 00:31:22;;;;;;;35.67;20.67;;;12.50;88.90;;;;;;4594206;19;20014;-31
2022/12/13 00:32:54;;;;;;;28.97;16.97;;;12.50;88.90;;;;;;4594195;19;20497;-29
2022/12/13 00:34:25;;;;;;;38.95;22.35;;;12.50;88.90;;;;;;4593756;19;20449;-29
2022/12/13 00:35:56;;;;;;;19.60;12.40;;;12.50;89.00;;;;;;4594615;19;20483;-29
2022/12/13 00:37:28;;;;;;;24.95;15.52;;;12.60;88.90;;;;;;4594719;19;20022;-28
2022/12/13 00:38:59;;;;;;;22.00;13.25;;;12.60;88.90;;;;;;4595226;19;20006;-29
2022/12/13 00:40:32;;;;;;;20.57;12.63;;;12.60;88.90;;;;;;4594389;19;20010;-28
2022/12/13 00:42:03;;;;;;;18.65;13.10;;;12.50;88.90;;;;;;4594880;19;20501;-29
2022/12/13 00:43:35;;;;;;;13.55;10.23;;;12.50;89.00;;;;;;4594104;19;20021;-32
2022/12/13 00:45:08;;;;;;;17.60;12.30;;;12.50;89.00;;;;;;4592560;19;20010;-32
2022/12/13 00:46:42;;;;;;;19.77;11.97;;;12.50;89.00;;;;;;4592761;19;20507;-31
2022/12/13 00:48:14;;;;;;;25.27;13.27;;;12.60;89.10;;;;;;4593433;19;21059;-28
2022/12/13 00:49:45;;;;;;;28.15;14.27;;;12.60;89.00;;;;;;4594307;19;20006;-27
2022/12/13 00:51:17;;;;;;;;;;;12.60;88.90;;;;;;4594877;19;20029;-32
2022/12/13 00:52:48;;;;;;;14.52;9.10;;;12.60;88.90;;;;;;4594467;19;19915;-31
2022/12/13 00:54:19;;;;;;;19.08;10.93;;;12.50;88.80;;;;;;4594569;19;20084;-33
2022/12/13 00:55:51;;;;;;;19.55;11.05;;;12.50;88.90;;;;;;4594914;19;20018;-31
2022/12/13 00:57:22;;;;;;;18.23;11.00;;;12.50;88.80;;;;;;4594377;19;20006;-30
2022/12/13 00:58:54;;;;;;;14.88;8.27;;;12.60;88.80;;;;;;4594316;19;20014;-29
2022/12/13 01:00:25;;;;;;;13.93;8.60;;;12.50;88.70;;;;;;4594285;19;20011;-29
2022/12/13 01:01:57;;;;;;;19.27;11.67;;;12.50;88.60;;;;;;4591365;19;20393;-32
2022/12/13 01:03:30;;;;;;;15.67;8.93;;;12.50;88.40;;;;;;4589883;19;20011;-29
2022/12/13 01:05:02;;;;;;;15.43;8.03;;;12.50;88.30;;;;;;4589909;19;20002;-29
2022/12/13 01:06:37;;;;;;;13.97;7.80;;;12.50;88.10;;;;;;4589814;19;21067;-31
2022/12/13 01:08:09;;;;;;;10.87;6.57;;;12.50;88.10;;;;;;4592091;19;20476;-31
2022/12/13 01:09:41;;;;;;;10.77;6.50;;;12.40;88.10;;;;;;4592765;19;20090;-31
2022/12/13 01:11:12;;;;;;;;;;;12.50;88.30;;;;;;4593629;19;20014;-33
2022/12/13 01:12:46;;;;;;;30.67;20.80;;;12.50;88.00;;;;;;4592287;19;19974;-31
2022/12/13 01:14:17;;;;;;;23.83;16.20;;;12.50;88.00;;;;;;4591487;19;20433;-29
2022/12/13 01:15:48;;;;;;;20.48;14.20;;;12.50;87.90;;;;;;4594424;19;20870;-29
2022/12/13 01:17:19;;;;;;;20.25;13.73;;;12.50;87.80;;;;;;4592294;19;20018;-31
2022/12/13 01:18:51;;;;;;;24.10;13.95;;;12.60;88.20;;;;;;4593887;19;20089;-33
2022/12/13 01:20:22;;;;;;;31.40;16.20;;;12.50;87.80;;;;;;4592508;19;20022;-32
2022/12/13 01:21:54;;;;;;;24.58;13.90;;;12.50;87.80;;;;;;4591495;19;20014;-28
2022/12/13 01:23:26;;;;;;;24.47;13.33;;;12.50;88.00;;;;;;4592579;19;20022;-31
2022/12/13 01:24:57;;;;;;;24.92;15.43;;;12.50;88.20;;;;;;4591456;19;20011;-29
2022/12/13 01:26:28;;;;;;;24.92;15.82;;;12.50;88.10;;;;;;4592365;19;20021;-29
2022/12/13 01:28:00;;;;;;;22.05;13.88;;;12.50;88.10;;;;;;4592904;19;20031;-31
2022/12/13 01:29:31;;;;;;;31.40;18.38;;;12.60;88.20;;;;;;4592900;19;20015;-28
2022/12/13 01:31:04;;;;;;;21.23;12.80;;;12.60;88.10;;;;;;4589463;19;20010;-33
2022/12/13 01:32:36;;;;;;;17.23;9.90;;;12.50;88.10;;;;;;4589905;19;20508;-29
2022/12/13 01:34:09;;;;;;;22.77;13.93;;;12.50;87.90;;;;;;4591144;19;20544;-30
2022/12/13 01:35:41;;;;;;;25.43;13.73;;;12.50;87.80;;;;;;4590442;19;20051;-31
2022/12/13 01:37:16;;;;;;;29.23;17.40;;;12.50;88.00;;;;;;4590947;19;20425;-28
2022/12/13 01:38:47;;;;;;;21.80;12.10;;;12.50;88.20;;;;;;4590255;19;20429;-32
2022/12/13 01:40:19;;;;;;;24.23;14.23;;;12.50;88.10;;;;;;4590065;19;20471;-28
2022/12/13 01:41:58;;;;;;;8.37;5.60;;;12.50;88.00;;;;;;4591605;19;20539;-29
2022/12/13 01:43:41;;;;;;;12.47;7.70;;;12.50;87.80;;;;;;4589729;19;20486;-31
2022/12/13 01:45:22;;;;;;;10.47;7.57;;;12.50;87.60;;;;;;4591078;19;20018;-27
2022/12/13 01:46:55;;;;;;;23.10;14.17;;;12.60;87.60;;;;;;4591383;19;20029;-30
2022/12/13 01:48:28;;;;;;;19.92;12.27;;;12.50;87.50;;;;;;4589980;19;20494;-28
2022/12/13 01:50:02;;;;;;;21.90;11.40;;;12.50;87.60;;;;;;4592668;19;20014;-32
2022/12/13 01:51:38;;;;;;;18.10;10.77;;;12.50;87.60;;;;;;4591296;19;20105;-30
2022/12/13 01:53:14;;;;;;;21.70;12.33;;;12.50;87.60;;;;;;4590102;19;20534;-29
2022/12/13 01:54:48;;;;;;;30.60;16.60;;;12.50;87.50;;;;;;4589815;19;20898;-30
2022/12/13 01:56:23;;;;;;;26.37;14.17;;;12.50;87.60;;;;;;4589825;19;20469;-29
2022/12/13 01:57:54;;;;;;;16.07;9.47;;;12.60;87.50;;;;;;4590743;19;20448;-29
2022/12/13 01:59:26;;;;;;;28.35;15.75;;;12.50;87.50;;;;;;4591017;19;20014;-31
2022/12/13 02:00:58;;;;;;;25.85;13.77;;;12.50;87.50;;;;;;4591311;19;20014;-33
2022/12/13 02:02:31;;;;;;;24.03;13.07;;;12.50;87.50;;;;;;4590154;19;20026;-32
2022/12/13 02:04:05;;;;;;;19.97;10.77;;;12.50;87.50;;;;;;4589599;19;20902;-31
2022/12/13 02:05:40;;;;;;;27.87;16.00;;;12.50;87.60;;;;;;4589465;19;20433;-32
2022/12/13 02:07:13;;;;;;;27.43;15.67;;;12.50;87.60;;;;;;4590045;19;20010;-30
2022/12/13 02:08:44;;;;;;;19.92;12.20;;;12.50;87.60;;;;;;4589886;19;20552;-31
2022/12/13 02:10:17;;;;;;;25.93;13.17;;;12.50;87.60;;;;;;4590025;19;20018;-31
2022/12/13 02:11:50;;;;;;;10.83;6.73;;;12.50;87.30;;;;;;4590608;19;20371;-31
2022/12/13 02:13:22;;;;;;;7.40;5.20;;;12.50;87.20;;;;;;4589652;19;20771;-31
2022/12/13 02:14:54;;;;;;;15.07;9.13;;;12.50;86.90;;;;;;4590355;19;20499;-31
2022/12/13 02:16:52;;;;;;;18.30;11.48;;;12.40;86.90;;;;;;4589454;19;20479;-29
2022/12/13 02:18:40;;;;;;;30.27;16.70;;;12.40;86.90;;;;;;4590491;19;20015;-31
2022/12/13 02:20:21;;;;;;;23.00;12.27;;;12.50;86.80;;;;;;4590785;19;20810;-27
2022/12/13 02:22:16;;;;;;;19.03;10.07;;;12.50;86.80;;;;;;4589494;19;20401;-30
2022/12/13 02:24:21;;;;;;;25.83;14.43;;;12.50;86.70;;;;;;4589712;19;20427;-30
2022/12/13 02:26:14;;;;;;;35.03;18.63;;;12.50;86.40;;;;;;4590139;19;20010;-29
2022/12/13 02:27:50;;;;;;;24.87;13.40;;;12.50;86.40;;;;;;4589379;19;20972;-27
2022/12/13 02:29:46;;;;;;;30.70;18.13;;;12.50;86.40;;;;;;4589600;19;20786;-31
2022/12/13 02:31:49;;;;;;;20.70;12.90;;;12.50;86.40;;;;;;4590797;19;20443;-31
2022/12/13 02:33:24;;;;;;;27.83;14.63;;;12.40;86.30;;;;;;4588044;19;20512;-29
2022/12/13 02:35:09;;;;;;;18.73;12.47;;;12.40;86.30;;;;;;4587947;19;20432;-27
2022/12/13 02:37:05;;;;;;;11.33;8.03;;;12.50;86.30;;;;;;4587938;19;20437;-30
2022/12/13 02:39:21;;;;;;;19.67;12.40;;;12.50;86.00;;;;;;4587627;19;20472;-27
2022/12/13 02:41:03;;;;;;;29.17;16.70;;;12.50;85.80;;;;;;4587385;19;20484;-30
2022/12/13 02:42:48;;;;;;;25.47;15.17;;;12.50;85.80;;;;;;4587513;19;20370;-29
2022/12/13 02:44:27;;;;;;;20.23;12.77;;;12.40;85.60;;;;;;4586595;19;20429;-31
2022/12/13 02:45:59;;;;;;;20.63;12.77;;;12.40;85.60;;;;;;4587044;19;20937;-31
2022/12/13 02:47:30;;;;;;;24.13;15.17;;;12.40;85.40;;;;;;4587569;19;20027;-28
2022/12/13 02:49:02;;;;;;;17.75;11.50;;;12.40;85.40;;;;;;4587495;19;20484;-31
2022/12/13 02:50:33;;;;;;;21.92;14.98;;;12.40;85.90;;;;;;4587621;19;20066;-30
2022/12/13 02:52:06;;;;;;;;;;;12.40;85.20;;;;;;4588131;19;20374;-31
2022/12/13 02:53:38;;;;;;;15.68;10.50;;;12.40;85.00;;;;;;4587590;19;19919;-31
2022/12/13 02:55:12;;;;;;;17.83;12.03;;;12.40;84.90;;;;;;4586991;19;20041;-29
2022/12/13 02:56:56;;;;;;;16.53;11.57;;;12.40;84.80;;;;;;4587221;19;21061;-32
2022/12/13 02:58:30;;;;;;;15.00;9.70;;;12.40;84.90;;;;;;4587157;19;20898;-31
2022/12/13 03:00:05;;;;;;;14.23;10.53;;;12.40;84.90;;;;;;4587248;19;20456;-29
2022/12/13 03:02:18;;;;;;;17.33;11.73;;;12.40;84.90;;;;;;4611058;19;20676;-31
2022/12/13 03:04:16;;;;;;;12.50;8.53;;;12.40;85.40;;;;;;4611728;19;20534;-28
2022/12/13 03:07:53;;;;;;;17.23;11.10;;;12.40;84.50;;;;;;4610607;19;20467;-33
2022/12/13 03:09:46;;;;;;;15.53;10.43;;;12.40;84.30;;;;;;4611935;19;20720;-34
2022/12/13 03:11:18;;;;;;;15.87;10.80;;;12.40;84.10;;;;;;4612333;19;20400;-34
2022/12/13 03:15:05;;;;;;;13.63;8.93;;;12.30;84.10;;;;;;4610699;19;20515;-33
2022/12/13 03:16:40;;;;;;;;;;;12.40;84.10;;;;;;4611240;19;20428;-33
2022/12/13 03:18:20;;;;;;;13.57;9.17;;;12.40;84.20;;;;;;4611139;19;19978;-33
2022/12/13 03:19:52;;;;;;;11.27;8.00;;;12.40;84.20;;;;;;4610386;19;20481;-32
2022/12/13 03:21:24;;;;;;;13.43;9.83;;;12.40;84.00;;;;;;4608972;19;21024;-30
2022/12/13 03:22:55;;;;;;;13.60;9.13;;;12.40;83.80;;;;;;4610660;19;20537;-34
2022/12/13 03:24:28;;;;;;;11.47;7.93;;;12.40;83.70;;;;;;4611039;19;20073;-33
2022/12/13 03:26:11;;;;;;;14.10;9.90;;;12.40;83.60;;;;;;4611233;19;20022;-32
2022/12/13 03:27:42;;;;;;;17.48;12.07;;;12.40;83.60;;;;;;4610256;19;20022;-32
2022/12/13 03:29:14;;;;;;;14.60;10.02;;;12.40;83.60;;;;;;4609983;19;20363;-35
2022/12/13 03:30:47;;;;;;;9.47;6.57;;;12.30;83.40;;;;;;4610807;19;20479;-36
2022/12/13 03:32:19;;;;;;;11.88;8.48;;;12.30;83.30;;;;;;4611316;19;20475;-37
2022/12/13 03:33:50;;;;;;;11.65;7.43;;;12.30;83.30;;;;;;4611074;19;20010;-34
2022/12/13 03:35:21;;;;;;;8.43;5.15;;;12.30;83.00;;;;;;4611049;19;20055;-32
2022/12/13 03:36:54;;;;;;;10.63;7.60;;;12.40;82.80;;;;;;4611578;19;20010;-39
2022/12/13 03:38:26;;;;;;;9.82;7.22;;;12.40;82.70;;;;;;4608400;19;20444;-34
2022/12/13 03:39:58;;;;;;;11.47;8.30;;;12.40;82.40;;;;;;4610528;19;20011;-31
2022/12/13 03:41:32;;;;;;;8.88;6.78;;;12.30;82.10;;;;;;4608404;19;20440;-30
2022/12/13 03:43:04;;;;;;;11.37;7.83;;;12.30;82.00;;;;;;4610846;19;20014;-34
2022/12/13 03:44:36;;;;;;;9.07;7.27;;;12.30;81.80;;;;;;4608857;19;20441;-30
2022/12/13 03:46:08;;;;;;;11.00;8.77;;;12.30;81.80;;;;;;4610261;19;20429;-34
2022/12/13 03:47:41;;;;;;;10.80;8.33;;;12.30;81.80;;;;;;4610725;19;20488;-33
2022/12/13 03:49:14;;;;;;;17.33;13.23;;;12.30;81.60;;;;;;4610964;19;20463;-32
2022/12/13 03:50:45;;;;;;;11.23;7.13;;;12.30;81.60;;;;;;4611229;19;20425;-34
2022/12/13 03:52:16;;;;;;;11.07;7.55;;;12.30;81.50;;;;;;4611023;19;20021;-34
2022/12/13 03:53:47;;;;;;;12.13;8.23;;;12.40;81.40;;;;;;4612190;19;20070;-36
2022/12/13 03:55:19;;;;;;;10.30;7.97;;;12.40;81.50;;;;;;4610831;19;20010;-35
2022/12/13 03:56:51;;;;;;;11.40;9.73;;;12.30;81.60;;;;;;4612011;19;20014;-33
2022/12/13 03:58:22;;;;;;;15.18;10.55;;;12.30;81.60;;;;;;4609514;19;20524;-30
2022/12/13 03:59:53;;;;;;;13.80;9.98;;;12.30;81.50;;;;;;4610216;19;20472;-33
2022/12/13 04:01:25;;;;;;;15.02;10.02;;;12.30;81.50;;;;;;4609061;19;20049;-30
2022/12/13 04:02:56;;;;;;;11.45;9.35;;;12.40;81.40;;;;;;4611714;19;20006;-38
2022/12/13 04:04:29;;;;;;;13.60;8.73;;;12.40;81.40;;;;;;4608062;19;20067;-34
2022/12/13 04:06:00;;;;;;;10.88;8.25;;;12.40;81.20;;;;;;4609451;19;20485;-30
2022/12/13 04:07:31;;;;;;;13.05;10.07;;;12.40;81.20;;;;;;4610574;19;20035;-27
2022/12/13 04:09:02;;;;;;;12.25;9.65;;;12.40;81.20;;;;;;4610153;19;20053;-29
2022/12/13 04:10:34;;;;;;;12.48;9.63;;;12.40;81.20;;;;;;4610319;19;20022;-30
2022/12/13 04:13:56;;;;;;;16.70;11.33;;;12.40;81.00;;;;;;4592612;19;20480;-29
2022/12/13 04:15:28;;;;;;;13.07;9.70;;;12.40;80.80;;;;;;4592167;19;20433;-29
2022/12/13 04:17:00;;;;;;;;;;;12.30;80.80;;;;;;4593431;19;20488;-29
2022/12/13 04:18:33;;;;;;;11.43;8.45;;;12.30;80.90;;;;;;4592065;19;19978;-28
2022/12/13 04:20:05;;;;;;;12.40;9.67;;;12.30;80.80;;;;;;4592898;19;20010;-30
2022/12/13 04:21:38;;;;;;;14.57;10.40;;;12.30;80.90;;;;;;4590770;19;20034;-29
2022/12/13 04:23:09;;;;;;;10.38;7.82;;;12.40;81.00;;;;;;4592109;19;20440;-29
2022/12/13 04:24:40;;;;;;;9.88;7.30;;;12.40;80.90;;;;;;4592143;19;20353;-29
2022/12/13 04:26:11;;;;;;;11.38;8.52;;;12.40;80.80;;;;;;4592326;19;20002;-29
2022/12/13 04:27:42;;;;;;;12.43;9.48;;;12.40;81.00;;;;;;4590956;19;20096;-29
2022/12/13 04:29:14;;;;;;;11.10;8.23;;;12.30;80.80;;;;;;4591626;19;20018;-28
2022/12/13 04:30:45;;;;;;;10.18;8.80;;;12.30;80.70;;;;;;4592110;19;20032;-29
2022/12/13 04:32:16;;;;;;;10.40;8.05;;;12.30;80.60;;;;;;4592443;19;20472;-28
2022/12/13 04:33:48;;;;;;;10.43;9.07;;;12.30;80.60;;;;;;4591909;19;20014;-30
2022/12/13 04:35:20;;;;;;;11.18;9.02;;;12.30;80.80;;;;;;4594572;19;20483;-29
2022/12/13 04:36:51;;;;;;;11.20;9.25;;;12.30;80.80;;;;;;4594140;19;20025;-29
2022/12/13 04:38:23;;;;;;;8.27;6.83;;;12.30;80.90;;;;;;4592607;19;20341;-29
2022/12/13 04:39:56;;;;;;;10.57;8.80;;;12.30;80.90;;;;;;4592586;19;20802;-28
2022/12/13 04:41:33;;;;;;;10.90;9.20;;;12.30;81.40;;;;;;4592013;19;20539;-28
2022/12/13 04:43:07;;;;;;;11.07;8.70;;;12.30;82.30;;;;;;4594358;19;20436;-28
2022/12/13 04:44:38;;;;;;;11.60;8.68;;;12.30;82.90;;;;;;4590654;19;20485;-28
2022/12/13 04:46:10;;;;;;;10.23;7.93;;;12.30;83.30;;;;;;4591739;19;20501;-29
2022/12/13 04:47:42;;;;;;;10.63;8.07;;;12.30;83.00;;;;;;4591102;19;20022;-28
2022/12/13 04:49:14;;;;;;;13.52;10.52;;;12.40;82.70;;;;;;4591256;19;20528;-28
2022/12/13 04:50:46;;;;;;;14.43;10.03;;;12.50;82.70;;;;;;4591101;19;20015;-29
2022/12/13 04:52:19;;;;;;;11.70;8.90;;;12.60;82.30;;;;;;4590955;19;20445;-27
2022/12/13 04:53:52;;;;;;;10.90;7.80;;;12.60;82.10;;;;;;4590856;19;20086;-28
2022/12/13 04:55:23;;;;;;;10.95;7.75;;;12.70;81.90;;;;;;4591771;19;20015;-28
2022/12/13 04:56:54;;;;;;;9.20;6.93;;;12.80;81.90;;;;;;4590859;19;20011;-27
2022/12/13 04:58:26;;;;;;;9.82;7.47;;;12.70;81.70;;;;;;4590911;19;20015;-28
2022/12/13 04:59:57;;;;;;;9.50;7.60;;;12.80;81.50;;;;;;4590541;19;20083;-32
2022/12/13 05:01:28;;;;;;;9.82;7.10;;;12.80;81.50;;;;;;4593010;19;20021;-29
2022/12/13 05:02:59;;;;;;;10.82;8.75;;;12.80;81.40;;;;;;4592064;19;20073;-31
2022/12/13 05:04:31;;;;;;;8.55;7.15;;;12.80;81.20;;;;;;4589636;19;20014;-32
2022/12/13 05:06:07;;;;;;;7.68;6.45;;;12.80;81.20;;;;;;4591050;19;20039;-31
2022/12/13 05:07:39;;;;;;;9.47;7.93;;;12.70;81.20;;;;;;4592033;19;20064;-30
2022/12/13 05:09:11;;;;;;;10.33;8.37;;;12.70;81.10;;;;;;4592800;19;20449;-33
2022/12/13 05:10:43;;;;;;;9.98;7.25;;;12.60;81.00;;;;;;4593865;19;20457;-27
2022/12/13 05:12:14;;;;;;;8.65;6.80;;;12.50;81.20;;;;;;4592912;19;20014;-37
2022/12/13 05:13:45;;;;;;;9.25;6.28;;;12.60;81.40;;;;;;4592147;19;20022;-30
2022/12/13 05:15:16;;;;;;;9.13;7.55;;;12.90;80.70;;;;;;4591880;19;20018;-36
2022/12/13 05:16:47;;;;;;;15.23;10.70;;;12.90;81.00;;;;;;4592242;19;20015;-30
2022/12/13 05:18:20;;;;;;;9.37;7.67;;;12.90;80.50;;;;;;4592387;19;20012;-35
2022/12/13 05:19:53;;;;;;;11.97;9.57;;;12.90;80.40;;;;;;4592058;19;20017;-34
2022/12/13 05:21:24;;;;;;;11.75;9.15;;;12.90;80.30;;;;;;4591300;19;20018;-31
2022/12/13 05:22:56;;;;;;;10.77;8.73;;;13.00;80.30;;;;;;4592689;19;20018;-32
2022/12/13 05:24:29;;;;;;;11.23;8.70;;;12.90;80.00;;;;;;4589924;19;20352;-30
2022/12/13 05:26:02;;;;;;;10.90;7.73;;;12.80;80.50;;;;;;4591632;19;20025;-28
2022/12/13 05:27:33;;;;;;;8.95;7.72;;;12.70;80.30;;;;;;4591610;19;20360;-29
2022/12/13 05:29:05;;;;;;;9.60;7.55;;;12.70;80.30;;;;;;4592116;19;20006;-29
2022/12/13 05:30:39;;;;;;;10.55;8.32;;;12.60;80.10;;;;;;4591333;19;20018;-27
2022/12/13 05:32:10;;;;;;;8.97;7.20;;;12.60;80.20;;;;;;4591499;19;20014;-27
2022/12/13 05:33:42;;;;;;;8.53;6.73;;;12.60;80.10;;;;;;4591836;19;20024;-30
2022/12/13 05:35:14;;;;;;;9.68;7.65;;;12.60;80.00;;;;;;4592001;19;20373;-28
2022/12/13 05:36:47;;;;;;;10.53;7.47;;;12.70;80.00;;;;;;4591586;19;20014;-27
2022/12/13 05:38:18;;;;;;;11.07;8.98;;;12.70;80.10;;;;;;4588101;19;21002;-26
2022/12/13 05:39:50;;;;;;;11.75;8.75;;;12.60;80.00;;;;;;4591986;19;20006;-28
2022/12/13 05:41:23;;;;;;;10.83;7.40;;;12.60;80.00;;;;;;4591586;19;20003;-31
2022/12/13 05:42:55;;;;;;;10.87;8.60;;;12.50;79.90;;;;;;4590392;19;20048;-26
2022/12/13 05:44:27;;;;;;;11.77;8.30;;;12.50;80.40;;;;;;4590858;19;20499;-33
2022/12/13 05:46:00;;;;;;;11.37;8.30;;;12.50;80.00;;;;;;4591977;19;20464;-27
2022/12/13 05:47:32;;;;;;;9.97;8.27;;;12.40;79.90;;;;;;4592034;19;20433;-32
2022/12/13 05:49:04;;;;;;;8.73;7.03;;;12.50;79.90;;;;;;4589865;19;20354;-28
2022/12/13 05:50:39;;;;;;;9.70;7.37;;;12.50;79.90;;;;;;4591143;19;20493;-28
2022/12/13 05:52:18;;;;;;;9.60;7.80;;;12.50;80.00;;;;;;4591700;19;20428;-31
2022/12/13 05:53:50;;;;;;;9.83;8.17;;;12.50;80.00;;;;;;4592173;19;20433;-30
2022/12/13 05:55:21;;;;;;;;;;;12.40;79.70;;;;;;4592164;19;20432;-31
2022/12/13 05:56:53;;;;;;;8.52;6.82;;;12.40;79.90;;;;;;4591062;19;19926;-31
2022/12/13 05:58:24;;;;;;;11.27;7.97;;;12.40;79.80;;;;;;4590998;19;20100;-29
2022/12/13 05:59:56;;;;;;;9.85;7.75;;;12.40;79.90;;;;;;4591039;19;20002;-29
2022/12/13 06:01:27;;;;;;;9.68;7.28;;;12.40;80.00;;;;;;4591141;19;20446;-29
2022/12/13 06:02:59;;;;;;;7.30;6.33;;;12.40;79.90;;;;;;4590903;19;20015;-29
2022/12/13 06:04:32;;;;;;;10.07;6.90;;;12.40;79.70;;;;;;4590713;19;20434;-30
2022/12/13 06:06:05;;;;;;;12.30;7.23;;;12.30;79.70;;;;;;4591379;19;20429;-37
2022/12/13 06:07:37;;;;;;;9.10;7.07;;;12.30;79.80;;;;;;4589519;19;20025;-29
2022/12/13 06:09:09;;;;;;;9.07;6.65;;;12.40;79.80;;;;;;4589807;19;20740;-32
2022/12/13 06:10:40;;;;;;;9.95;7.07;;;12.50;80.00;;;;;;4590182;19;20021;-34
2022/12/13 06:12:12;;;;;;;9.07;7.30;;;12.60;79.70;;;;;;4589529;19;20456;-33
2022/12/13 06:13:44;;;;;;;9.60;7.30;;;12.50;79.80;;;;;;4589994;19;20486;-35
2022/12/13 06:15:15;;;;;;;9.52;6.80;;;12.50;79.70;;;;;;4589812;19;20010;-32
2022/12/13 06:16:48;;;;;;;11.67;7.60;;;12.40;79.80;;;;;;4590737;19;20030;-36
2022/12/13 06:18:19;;;;;;;9.70;8.17;;;12.40;80.00;;;;;;4590679;19;20516;-33
2022/12/13 06:19:51;;;;;;;11.13;8.55;;;12.30;79.90;;;;;;4591008;19;20441;-32
2022/12/13 06:21:23;;;;;;;12.33;8.70;;;12.40;80.10;;;;;;4589765;19;20013;-39
2022/12/13 06:22:55;;;;;;;12.03;9.43;;;12.40;80.20;;;;;;4591257;19;20448;-33
2022/12/13 06:24:27;;;;;;;12.60;9.30;;;12.40;80.10;;;;;;4589336;19;20575;-34
2022/12/13 06:26:03;;;;;;;12.57;9.20;;;12.30;80.00;;;;;;4590469;19;20042;-31
2022/12/13 06:27:36;;;;;;;12.20;9.20;;;12.30;79.90;;;;;;4590847;19;20401;-33
2022/12/13 06:29:09;;;;;;;10.63;8.10;;;12.30;80.10;;;;;;4590893;19;20483;-37
2022/12/13 06:30:41;;;;;;;16.23;11.13;;;12.30;80.20;;;;;;4590542;19;20010;-34
2022/12/13 06:32:13;;;;;;;15.85;10.27;;;12.30;80.00;;;;;;4590842;19;20481;-36
2022/12/13 06:33:46;;;;;;;16.37;9.30;;;12.30;80.10;;;;;;4590791;19;20006;-33
2022/12/13 06:35:17;;;;;;;15.00;9.55;;;12.30;80.30;;;;;;4589572;19;20532;-31
2022/12/13 06:36:49;;;;;;;21.00;12.03;;;12.30;80.20;;;;;;4590196;19;20030;-30
2022/12/13 06:38:23;;;;;;;12.00;8.90;;;12.30;80.20;;;;;;4587561;19;20465;-32
2022/12/13 06:39:54;;;;;;;16.53;10.83;;;12.30;80.20;;;;;;4589857;19;20503;-31
2022/12/13 06:41:25;;;;;;;15.63;9.32;;;12.30;80.30;;;;;;4586948;19;20785;-34
2022/12/13 06:42:57;;;;;;;15.65;9.82;;;12.30;80.40;;;;;;4590655;19;20474;-33
2022/12/13 06:44:28;;;;;;;26.08;18.35;;;12.30;80.30;;;;;;4590832;19;20014;-33
2022/12/13 06:46:03;;;;;;;40.07;27.17;;;12.30;80.30;;;;;;4589885;19;20425;-37
2022/12/13 06:47:35;;;;;;;31.13;22.67;;;12.20;80.00;;;;;;4590872;19;21041;-34
2022/12/13 06:49:07;;;;;;;80.20;64.80;;;12.30;80.20;;;;;;4590408;19;20429;-33
2022/12/13 06:50:39;;;;;;;65.60;44.08;;;12.30;80.10;;;;;;4590017;19;21119;-31
2022/12/13 06:52:13;;;;;;;25.88;17.27;;;12.30;80.30;;;;;;4590109;19;20074;-38
2022/12/13 06:53:45;;;;;;;24.63;16.00;;;12.30;80.30;;;;;;4590134;19;20035;-29
2022/12/13 06:55:19;;;;;;;30.63;18.83;;;12.30;80.40;;;;;;4588999;19;20452;-31
2022/12/13 06:56:50;;;;;;;30.37;17.53;;;12.30;80.50;;;;;;4591695;19;20428;-33
2022/12/13 07:00:02;;;;;;;19.90;14.10;;;12.20;80.20;;;;;;4585644;19;20538;-28
2022/12/13 07:01:34;;;;;;;63.83;56.60;;;12.20;80.10;;;;;;4588602;19;20622;-31
2022/12/13 07:03:05;;;;;;;72.97;59.92;;;11.30;80.90;;;;;;4588958;19;20436;-28
2022/12/13 07:04:40;;;;;;;26.20;21.58;;;9.40;84.10;;;;;;4589468;19;20014;-28
2022/12/13 07:06:19;;;;;;;29.83;20.03;;;8.30;87.30;;;;;;4590239;19;20038;-28
2022/12/13 07:07:50;;;;;;;31.93;21.57;;;7.70;89.00;;;;;;4589747;19;20552;-29
2022/12/13 07:09:21;;;;;;;28.83;17.83;;;7.40;89.60;;;;;;4592198;19;20576;-29
2022/12/13 07:10:54;;;;;;;22.08;14.68;;;7.30;90.40;;;;;;4589933;19;20033;-29
2022/12/13 07:12:25;;;;;;;24.33;15.63;;;7.20;90.10;;;;;;4591306;19;20011;-29
2022/12/13 07:13:57;;;;;;;14.35;10.75;;;7.10;90.60;;;;;;4590545;19;20833;-27
2022/12/13 07:15:31;;;;;;;28.57;18.77;;;7.00;90.40;;;;;;4591712;19;20018;-27
2022/12/13 07:17:03;;;;;;;19.07;13.87;;;7.00;90.30;;;;;;4589296;19;20457;-27
2022/12/13 07:18:34;;;;;;;31.55;18.88;;;6.90;90.50;;;;;;4589542;19;20520;-27
2022/12/13 07:20:06;;;;;;;26.95;17.02;;;6.90;90.80;;;;;;4591541;19;20352;-29
2022/12/13 07:21:38;;;;;;;23.43;18.47;;;6.90;90.50;;;;;;4588292;19;20015;-29
2022/12/13 07:23:10;;;;;;;26.87;17.83;;;6.90;90.50;;;;;;4590269;19;20457;-30
2022/12/13 07:24:41;;;;;;;18.33;14.18;;;6.90;90.40;;;;;;4588874;19;20533;-28
2022/12/13 07:26:12;;;;;;;31.20;19.17;;;6.90;90.70;;;;;;4588912;19;20015;-27
2022/12/13 07:27:44;;;;;;;38.10;22.80;;;7.00;90.40;;;;;;4587491;19;20029;-29
2022/12/13 07:29:15;;;;;;;26.38;16.33;;;8.10;89.30;;;;;;4590173;19;20025;-29
2022/12/13 07:30:46;;;;;;;21.00;14.68;;;9.10;87.80;;;;;;4588655;19;20022;-30
2022/12/13 07:32:20;;;;;;;26.73;16.10;;;9.70;85.70;;;;;;4588345;19;20031;-27
2022/12/13 07:33:52;;;;;;;21.87;13.40;;;10.20;84.70;;;;;;4589284;19;20472;-31
2022/12/13 07:35:23;;;;;;;28.02;18.25;;;10.60;83.80;;;;;;4587977;19;21071;-30
2022/12/13 07:36:54;;;;;;;21.42;14.65;;;10.80;83.20;;;;;;4586815;19;20480;-31
2022/12/13 07:38:25;;;;;;;17.13;12.77;;;11.00;83.10;;;;;;4589062;19;20022;-29
2022/12/13 07:39:58;;;;;;;16.67;10.98;;;11.10;82.80;;;;;;4587828;19;20025;-29
2022/12/13 07:41:29;;;;;;;21.67;14.83;;;11.20;82.20;;;;;;4587984;19;20027;-31
2022/12/13 07:43:01;;;;;;;20.50;12.55;;;11.30;82.10;;;;;;4589924;19;20464;-30
2022/12/13 07:44:32;;;;;;;22.25;14.50;;;11.40;81.60;;;;;;4590495;19;20041;-28
2022/12/13 07:46:04;;;;;;;15.98;11.27;;;11.40;81.70;;;;;;4587930;19;20015;-28
2022/12/13 07:47:36;;;;;;;25.77;14.87;;;11.50;81.40;;;;;;4591803;19;20475;-27
2022/12/13 07:49:07;;;;;;;20.23;13.85;;;11.60;81.10;;;;;;4595331;19;20534;-31
2022/12/13 07:50:38;;;;;;;16.00;11.68;;;11.70;81.00;;;;;;4592493;19;20482;-28
2022/12/13 07:52:10;;;;;;;22.67;14.07;;;11.70;81.00;;;;;;4591890;19;20044;-30
2022/12/13 07:53:41;;;;;;;19.83;12.67;;;11.70;80.70;;;;;;4591977;19;20530;-29
2022/12/13 07:55:12;;;;;;;14.05;11.00;;;11.80;80.60;;;;;;4591878;19;20565;-29
2022/12/13 07:56:44;;;;;;;20.70;13.38;;;11.80;80.50;;;;;;4590231;19;20019;-30
2022/12/13 07:58:15;;;;;;;19.45;12.50;;;11.80;80.50;;;;;;4591422;19;20018;-29
2022/12/13 07:59:47;;;;;;;17.52;11.55;;;11.80;80.10;;;;;;4589442;19;20016;-29
2022/12/13 08:01:18;;;;;;;15.93;11.95;;;11.80;80.20;;;;;;4589710;19;20114;-29
2022/12/13 08:02:49;;;;;;;18.77;12.55;;;11.90;80.30;;;;;;4591800;19;20527;-29
2022/12/13 08:04:21;;;;;;;21.38;14.50;;;11.90;80.00;;;;;;4590852;19;20421;-29
2022/12/13 08:05:59;;;;;;;16.60;12.25;;;11.90;79.90;;;;;;4593677;19;20334;-28
2022/12/13 08:07:30;;;;;;;18.63;13.93;;;12.00;79.90;;;;;;4593446;19;20021;-29